Billings, MT

9:09 PM MST on January 26, 2015 (GMT -0700)
Billings Logan International | Change Station
CLOSE
Current Station
Airport
Location: Billings,
Elevation: 3570 ft
Nearby Weather Stations

Elev 3570 ft 45.81 °N, 108.54 °W | Updated 16 minutes ago

Scattered Clouds
Scattered Clouds
52 °F
Feels Like 52 °F
N
25
Wind Variable Wind from WSW
Gusts 32 mph

Today
High -- | Low -- °F
--% Chance of Precip.
Yesterday
High -- | Low -- °F
Precip. -- in
7:42 AM 5:11 PM
Waxing Crescent, 50% visible
Pressure 30.00 in
Visibility 10.0 miles
Clouds Scattered Clouds 25000 ft
Dew Point 26 °F
Humidity 37%
Rainfall 0.00 in
Snow Depth Not available.
UV 0 out of 12
Pollen .10 out of 12
Air Quality Not available.
Flu Activity Not available.
METAR KBIL 270353Z 24022G28KT 10SM SCT250 11/M03 A2999 RMK AO2 PK WND 24029/0332 SLP159 T01111033

More Conditions Fewer Conditions

Pressure 30.00 in
Visibility 10.0 miles
Clouds Scattered Clouds 25000 ft
Dew Point 26 °F
Humidity 37%
Rainfall 0.00 in
Snow Depth Not available.
UV 0 out of 12
Pollen .10 out of 12
Air Quality Not available.
Flu Activity Not available.
METAR KBIL 270353Z 24022G28KT 10SM SCT250 11/M03 A2999 RMK AO2 PK WND 24029/0332 SLP159 T01111033

More Conditions Fewer Conditions

10-Day Weather Forecast

Almanac

Astronomy

Jan. 26, 2015 Rise Set
Actual Time
Civil Twilight
Nautical Twilight
Astronomical Twilight
Moon
Length of Visible Light
Length of Day
Tomorrow will be .
, % of the Moon is Illuminated

Today's Extremes

State Highs State Lows

Community

WunderPhotos

Upload Photos

1,790,520 photos uploaded!

WunderBlogs® & News

Nearby

Air Quality

  Air Quality AQ Index Pollutant
Not available.

Snow Depth

Station Depth Elevation

Earthquake Activity

City Distance Mag. Time & Date
Minimum magnitude displayed is 2.5.

Coastal Water Temperatures

Place Temperature

Nearby Weather Stations